Welcome to the World, Little One!


When you welcome your special arrival into the world at Reedsburg Area Medical Center, you have the special opportunity to announce your baby's arrival through our free, online birth announcement service!

Recent Newborns...

Name Date Weight Length
1 Paxton Joseph 11/09/2018 8 lbs 15 oz 21 inches
1 Beckett Michael 11/08/2018 5 lbs 7 oz 18 inches
1 Temperance Reigns 11/04/2018 6 lbs 9 oz 19 inches
1 Ryder Christopher KC 11/02/2018 9 lbs 10 oz 22 inches
1 Cooper Don 10/30/2018 8 lbs 12 oz 20 inches
1 Theodore Robert Wayne 10/27/2018 9 lbs 10 oz 21 inches
1 Marie Corrine 10/27/2018 5 lbs 8 oz 17.5 inches
1 Renna Jade Emersyn 10/27/2018 6 lbs 19.5 inches
1 Joslynn 10/25/2018 7 lbs 13 oz 19.5 inches
1 Colton James 10/21/2018 8 lbs 9 oz 21 inches
1 Zoey Jean 10/19/2018 6 lbs 10 oz 17.5 inches
1 Kenneth Jerome 10/17/2018 8 lbs 11 oz 21 inches
1 KynLee Lynn 10/15/2018 10 lbs 7 oz 20.5 inches
1 Owen James 10/13/2018 7 lbs 14 oz 20.5 inches
1 Kinley Kay 10/13/2018 7 lbs 15 oz 19.5 inches
1 Sawyer Ryan 10/12/2018 7 lbs 6 oz 20 inches
1 Naledi Ellison 10/08/2018 7 lbs 14 oz 19.5 inches
1 Ava Lynn 10/08/2018 5 lbs 14 oz 20 inches
1 Liam Joseph 10/05/2018 7 lbs 12 oz 21 inches
1 Snayder Arodis 09/28/2018 7 lbs 14 oz 20 inches
1 Adalynn Elaine 09/28/2018 7 lbs 5 oz 19 inches
1 Tyrone Artum 09/26/2018 6 lbs 8 oz 18.5 inches
1 Elijah John Wesley 09/21/2018 8 lbs 10 oz 20 1/2 inches
1 Jaxson James 09/21/2018 7 lbs 13 oz 19 inches
1 Presley Jane 09/21/2018 8 lbs 12 oz 20 1/2 inches
1 Zoey Renee 09/20/2018 7 lbs 2 oz 20 inches
1 Gyler Ernest James 09/17/2018 7 lbs 7 oz 20 inches
1 Adley Rayne 09/16/2018 8 lbs 11 oz 20.5 inches
1 Mitch Aiden 09/08/2018 6 lbs 9 oz 19.5 inches
1 Lily Ann 09/04/2018 7 lbs 4 oz 19 inches
1 Jakai Quinn 09/01/2018 9 lbs 4 oz 19.5 inches
1 Theo Matthew 08/29/2018 7 lbs 8 oz 19.5 inches
1 Decker James 08/28/2018 9 lbs 10 oz 20 inches
1 Jordan James 08/25/2018 7 lbs 8 oz 21 inches
1 Dawson Luke 08/24/2018 8 lbs 7 oz 21 inches
1 Karmynn Rae Lynn 08/24/2018 7 lbs 19 inches
1 Silas James 08/23/2018 9 lbs 2 oz 20.5 inches
1 Mark David 08/19/2018 8 lbs 21 inches
1 Grayson Daniel 08/17/2018 8 lbs 6 oz 21.5 inches
1 Myles Donald 08/15/2018 9 lbs 14 oz 21.5 inches
1 Zaylee Ann 08/14/2018 6 lbs 13 oz 19 inches
1 Natalie Lynn 08/13/2018 8 lbs 4 oz 20 1/4 inches
1 Brantley Jacob 08/13/2018 7 lbs 9 oz 20 inches
1 Nation Currie 08/13/2018 6 lbs 13 oz 19 inches
1 August Teague 08/12/2018 7 lbs 3 oz -
1 Marlee Mae 08/08/2018 8 lbs 1 oz 20 inches
1 Bodhi Gerald Steven 08/04/2018 8 lbs 3 oz 20.5 inches
1 Bodhi Gerald Steven (1) 08/04/2018 8 lbs 3 oz 20.5 inches
1 Anthony Lee 08/03/2018 8 lbs 15 oz 21 inches
1 Avery Noel 08/02/2018 7 lb 9 oz 19.5 inches
1 Connor John 07/31/2018 8 lbs 15 oz 21.5 inches
1 Jaxson William 07/22/2018 6 lbs 12 oz 20 inches
1 Ryker John 07/22/2018 7 lbs 19.5 inches
1 Maylee Michaela Sue 07/21/2018 8 lbs 1 oz 21 inches
1 Graham James Cooper 07/18/2018 8 lbs 2 oz 19.5 inches
1 Evander Leroy 07/18/2018 6 lbs 12 oz 19.5 inches
1 Maisyn Jolee 07/13/2018 8 lbs 5 oz 20 1/2 inches
1 Wyatt James 07/11/2018 7 lbs 6 oz "
1 Salem Leo 07/10/2018 7 lbs 3 oz 19.5 inches
1 Jameison Daniel 07/10/2018 7 lbs 2 oz 19.5 inches
1 Waylon Allen John 07/10/2018 6 lbs 12 oz 20 inches
1 Bowdyn Patrick Allen 07/06/2018 7 lbs 1 oz 19.5 inches
1 Payne Hubert 07/02/2018 7 lbs 14 oz 21 inches
1 Morgan Sue-Lynn 06/29/2018 7 lbs 3 oz 19 inches
1 Lincoln Matthew 06/27/2018 8 lbs 5 oz 20 inches
1 Harvey Robert Thomas 06/23/2018 8 lbs 12 oz 21 inches
1 Louis Steven 06/18/2018 7 lbs 3 oz 19 inches
1 Cody James 06/14/2018 6 lbs 15 oz 19 inches
1 Paisley Lynn 06/13/2018 7 lbs 18.5 inches
1 Lily Mae 06/13/2018 7 lbs 9 oz 20 inches
1 Hailey Lynn 06/12/2018 8 lbs 20 inches
1 Jaelyn Ivy 06/11/2018 6 lbs 8 oz 18.5 inches
1 Rodney Joseph Harvey 06/08/2018 7 lbs 10 oz 20.5 inches
1 Cooper Donald 06/04/2018 9 lbs 3 oz 22 inches
1 Keegan Dewayne 06/03/2018 7 bls 1 oz 19.5 inches
1 Nova Mae 06/03/2018 7 lbs 11 oz 20 inches
1 Hadley Jean 06/01/2018 9 lbs 21 inches
1 Lincoln Peter 06/01/2018 8 lbs 12 oz 20.5 inches
1 Amandus Alan 05/30/2018 8 lbs 5 oz 20 inches
1 Emmitt William 05/29/2018 6 lbs 13 oz 18.5 inches
1 Jordan Samuel 05/29/2018 8 lbs 2 oz 20.5 inches
1 Hudson Paradise (1) 05/29/2018 7 lbs 14 oz 20 inches
1 Isaak Brian 05/25/2018 8 lbs 1 oz 20.5 inches
1 Bennie Joel 05/25/2018 9 lbs 12 oz 21 inches
1 Claire Elizabeth 05/20/2018 7 lbs 5 oz 20 3/4 inches
1 Mason Daniel 05/19/2018 7 lbs 10 oz 19 inches
1 Christopher John 05/16/2018 7 lbs 1 oz 20 inches
1 Austin Ryan 05/14/2018 8 lbs 12 oz 22 inches
1 Maximus Alexander 05/14/2018 7 lbs 13 oz 20.5 inches
1 Raymond Lee 05/11/2018 9 lbs 2 oz 20 inches
1 Vincent Warren 05/04/2018 6 lbs 13 oz 19 inches
1 Westin Ray 05/01/2018 7 lbs 6 oz 20 inches
2 Nolan Christopher 04/30/2018 7 lbs 1 oz 18.5 inches
1 Fiona Noelle 04/22/2018 7lbs 14 oz 19 inches
1 Andi Elaine 04/21/2018 8 lbs 10 oz 19 inches
1 Gideon Lee 04/21/2018 9 lbs 8 oz 21 inches
1 Beckett Anthony 04/20/2018 9 lbs 2 oz 21 inches
1 Mila Tzvetomirova 04/17/2018 7 lbs 5 oz 19 inches
1 Natalie Grace 04/12/2018 8 lbs 10 oz 21 inches
1 Tamryn Herbert 04/09/2018 8 lbs 4 oz 20 inches